Skip Navigation Links Skip Navigation Links

Current Weather

Noatak, Alaska

For information only: do not use for flight planning or navigation.
Latest weather
Observation time Friday, May 29, 2020 1:56 PM AKDT
Local time Friday, May 29, 2020 2:57 PM AKDT
Flight conditions Visual Meteorological Conditions
Winds
Wind direction Northeast (40°)
Wind speed 3 mph
Visibility 10 mi.
Sky condition
Ceiling unlimited
Sky clear
Temperature 60°F
Dewpoint 29°F
Altimeter 30.24 in.Hg
Derived measurements
Relative humidity 30%
Density altitude -118 ft.
Sea-level pressure 30.28 in.Hg
Remarks
Fully automated report.
Automated weather observing station with precipitation discriminator.
METAR PAWN 292156Z AUTO 04003KT 10SM CLR 16/M02 A3024 RMK AO2 SLP253 T01561017

Settings

Location code

InnerDrive.Weather 4.0.6770.0 Release CLR 4.0.30319.42000
Copyright ©2018 Inner Drive Technology. All rights reserved. Portions Copyright ©1986-2018 David Braverman.

Find weather

Site navigation


Skip Navigation Links

Place info

Page info

PayPal - The safer, easier way to pay online!

Return home.

Copyright ©2020 Inner Drive Technology. Purveyors of fine, hand-crafted computer software. Page printed 2020-05-29T22:57:57 UTC.